createdAt,value
2018-03-20T00:00:24.483Z,18.93
2018-03-20T00:02:52.039Z,18.77
2018-03-20T00:05:19.645Z,21.33
2018-03-20T00:07:47.205Z,22.87
2018-03-20T00:10:14.744Z,23.03
2018-03-20T00:12:42.268Z,23.67
2018-03-20T00:15:09.815Z,20.67
2018-03-20T00:17:37.357Z,20.87
2018-03-20T00:20:04.887Z,22.30
2018-03-20T00:22:32.401Z,23.97
2018-03-20T00:24:59.928Z,24.00
2018-03-20T00:27:27.449Z,22.93
2018-03-20T00:29:54.978Z,22.53
2018-03-20T00:32:22.525Z,21.93
2018-03-20T00:34:50.165Z,26.63
2018-03-20T00:37:17.690Z,21.00
2018-03-20T00:39:45.285Z,17.87
2018-03-20T00:42:12.844Z,17.33
2018-03-20T00:44:40.369Z,20.10
2018-03-20T00:47:07.898Z,20.10
2018-03-20T00:49:35.424Z,19.03
2018-03-20T00:52:02.949Z,20.33
2018-03-20T00:54:30.545Z,22.00
2018-03-20T00:56:58.069Z,17.23
2018-03-20T00:59:25.661Z,18.50
2018-03-20T01:01:53.188Z,22.47
2018-03-20T01:04:20.749Z,19.33
2018-03-20T01:06:48.340Z,19.23
2018-03-20T01:09:15.870Z,17.93
2018-03-20T01:11:43.393Z,20.80
2018-03-20T01:14:10.916Z,21.67
2018-03-20T01:16:38.450Z,16.23
2018-03-20T01:19:05.976Z,21.47
2018-03-20T01:21:33.496Z,17.83
2018-03-20T01:24:01.026Z,17.07
2018-03-20T01:26:28.646Z,16.93
2018-03-20T01:28:56.276Z,22.47
2018-03-20T01:31:23.804Z,19.67
2018-03-20T01:33:51.325Z,18.17
2018-03-20T01:36:18.850Z,18.20
2018-03-20T01:38:46.377Z,17.77
2018-03-20T01:41:13.906Z,16.63
2018-03-20T01:43:41.431Z,20.27
2018-03-20T01:46:08.955Z,20.00
2018-03-20T01:48:36.473Z,19.17
2018-03-20T01:51:04.114Z,18.73
2018-03-20T01:53:31.642Z,19.00
2018-03-20T01:55:59.253Z,19.93
2018-03-20T01:58:26.854Z,19.03
2018-03-20T02:00:54.389Z,17.17
2018-03-20T02:03:21.909Z,17.17
2018-03-20T02:05:49.437Z,16.97
2018-03-20T02:08:16.961Z,17.43
2018-03-20T02:10:44.492Z,15.90
2018-03-20T02:13:12.000Z,17.10
2018-03-20T02:15:39.606Z,15.93
2018-03-20T02:18:07.138Z,16.20
2018-03-20T02:20:34.657Z,15.30
2018-03-20T02:23:02.190Z,17.00
2018-03-20T02:25:29.720Z,14.17
2018-03-20T02:27:57.241Z,16.23
2018-03-20T02:30:24.766Z,15.90
2018-03-20T02:32:52.300Z,16.27
2018-03-20T02:35:19.887Z,15.63
2018-03-20T02:37:47.443Z,19.00
2018-03-20T02:40:15.002Z,17.30
2018-03-20T02:42:42.538Z,14.57
2018-03-20T02:45:10.057Z,14.27
2018-03-20T02:47:37.590Z,16.37
2018-03-20T02:50:05.119Z,15.47
2018-03-20T02:52:32.634Z,15.10
2018-03-20T02:55:00.158Z,15.30
2018-03-20T02:57:27.692Z,15.57
2018-03-20T04:15:52.202Z,14.43
2018-03-20T04:18:19.725Z,15.23
2018-03-20T04:20:47.255Z,18.70
2018-03-20T04:23:14.791Z,18.97
2018-03-20T04:25:42.366Z,18.27
2018-03-20T04:28:09.897Z,18.30
2018-03-20T04:30:37.441Z,19.30
2018-03-20T04:33:05.055Z,20.37
2018-03-20T04:35:32.618Z,16.73
2018-03-20T04:38:00.150Z,19.17
2018-03-20T04:40:27.674Z,17.17
2018-03-20T04:42:55.204Z,19.10
2018-03-20T04:45:22.854Z,22.00
2018-03-20T04:47:50.389Z,15.33
2018-03-20T04:50:17.917Z,18.33
2018-03-20T04:52:45.450Z,18.70
2018-03-20T04:55:12.965Z,18.67
2018-03-20T04:57:40.481Z,22.10
2018-03-20T05:00:08.012Z,18.60
2018-03-20T05:02:35.543Z,19.87
2018-03-20T05:05:03.069Z,17.90
2018-03-20T05:07:30.693Z,17.00
2018-03-20T05:09:58.253Z,20.73
2018-03-20T05:12:25.782Z,18.37
2018-03-20T05:14:53.296Z,15.77
2018-03-20T05:17:20.830Z,18.07
2018-03-20T05:22:57.741Z,17.07
2018-03-20T05:25:25.260Z,15.77
2018-03-20T05:27:52.786Z,19.17
2018-03-20T05:30:20.307Z,16.00
2018-03-20T05:32:47.834Z,18.00
2018-03-20T05:35:15.358Z,13.40
2018-03-20T05:37:42.884Z,16.40
2018-03-20T05:40:10.410Z,17.33
2018-03-20T05:42:37.974Z,15.03
2018-03-20T05:45:05.494Z,14.00
2018-03-20T05:47:33.736Z,19.50
2018-03-20T05:50:05.780Z,17.10
2018-03-20T05:52:33.330Z,18.60
2018-03-20T05:55:00.860Z,15.73
2018-03-20T05:57:28.417Z,18.77
2018-03-20T05:59:56.040Z,21.63
2018-03-20T06:02:23.574Z,19.37
2018-03-20T06:04:51.153Z,16.47
2018-03-20T06:07:18.679Z,17.80
2018-03-20T06:09:46.217Z,18.60
2018-03-20T06:12:13.832Z,17.33
2018-03-20T06:14:41.374Z,21.07
2018-03-20T06:17:08.898Z,25.70
2018-03-20T06:19:36.423Z,17.07
2018-03-20T06:22:03.948Z,15.37
2018-03-20T06:24:31.470Z,18.17
2018-03-20T06:26:59.099Z,17.53
2018-03-20T06:29:26.636Z,20.03
2018-03-20T06:31:54.176Z,17.13
2018-03-20T06:34:21.741Z,19.03
2018-03-20T06:36:49.303Z,22.60
2018-03-20T06:39:16.888Z,18.17
2018-03-20T06:41:44.430Z,23.43
2018-03-20T06:44:11.958Z,15.57
2018-03-20T06:46:39.483Z,14.53
2018-03-20T06:49:07.025Z,17.27
2018-03-20T06:51:34.561Z,19.10
2018-03-20T06:54:02.089Z,17.47
2018-03-20T06:56:29.603Z,18.33
2018-03-20T06:58:57.128Z,19.03
2018-03-20T07:01:24.665Z,15.77
2018-03-20T07:03:52.198Z,16.73
2018-03-20T07:06:19.748Z,18.30
2018-03-20T07:08:47.274Z,18.13
2018-03-20T07:11:14.805Z,22.87
2018-03-20T07:13:42.342Z,22.53
2018-03-20T07:16:09.868Z,16.10
2018-03-20T07:18:37.410Z,18.40
2018-03-20T07:21:04.942Z,19.90
2018-03-20T07:23:32.470Z,21.07
2018-03-20T07:25:59.992Z,17.90
2018-03-20T07:28:27.587Z,19.70
2018-03-20T07:30:55.109Z,16.87
2018-03-20T07:33:22.636Z,20.27
2018-03-20T07:35:50.157Z,21.87
2018-03-20T07:38:17.689Z,18.07
2018-03-20T07:40:45.224Z,22.33
2018-03-20T07:43:12.851Z,15.17
2018-03-20T07:45:40.388Z,18.03
2018-03-20T07:48:07.922Z,19.23
2018-03-20T07:50:36.040Z,17.43
2018-03-20T07:53:03.558Z,18.50
2018-03-20T07:55:31.088Z,18.77
2018-03-20T07:57:58.618Z,21.53
2018-03-20T08:00:26.154Z,16.37
2018-03-20T08:02:53.690Z,17.43
2018-03-20T08:05:21.228Z,18.70
2018-03-20T08:07:48.861Z,16.87
2018-03-20T08:10:16.385Z,20.47
2018-03-20T08:12:43.930Z,17.23
2018-03-20T08:15:11.469Z,18.00
2018-03-20T08:17:38.998Z,20.13
2018-03-20T08:20:06.525Z,17.57
2018-03-20T08:22:34.113Z,23.73
2018-03-20T08:25:01.642Z,21.10
2018-03-20T08:27:29.198Z,18.27
2018-03-20T08:29:56.717Z,21.67
2018-03-20T08:32:24.341Z,19.27
2018-03-20T08:34:51.875Z,19.00
2018-03-20T08:37:19.406Z,20.67
2018-03-20T08:39:47.039Z,19.07
2018-03-20T08:42:14.630Z,19.40
2018-03-20T08:44:42.144Z,18.03
2018-03-20T08:47:09.719Z,17.63
2018-03-20T08:49:37.305Z,20.20
2018-03-20T08:52:04.937Z,19.23
2018-03-20T08:54:32.473Z,16.63
2018-03-20T08:56:59.994Z,19.87
2018-03-20T08:59:27.539Z,19.07
2018-03-20T09:01:55.068Z,19.50
2018-03-20T09:04:22.767Z,19.57
2018-03-20T09:06:50.297Z,22.17
2018-03-20T09:09:17.827Z,21.03
2018-03-20T09:11:45.356Z,18.53
2018-03-20T09:14:12.864Z,22.00
2018-03-20T09:16:40.382Z,18.90
2018-03-20T09:19:07.908Z,18.67
2018-03-20T09:21:35.568Z,23.97
2018-03-20T09:24:03.098Z,21.27
2018-03-20T09:26:30.645Z,17.40
2018-03-20T09:28:59.011Z,19.10
2018-03-20T09:31:26.589Z,18.70
2018-03-20T09:33:54.183Z,19.23
2018-03-20T09:36:21.740Z,16.50
2018-03-20T09:38:49.296Z,18.87
2018-03-20T09:41:16.832Z,21.20
2018-03-20T09:43:44.455Z,20.13
2018-03-20T09:46:12.001Z,16.30
2018-03-20T09:48:39.543Z,20.00
2018-03-20T09:51:07.066Z,24.10
2018-03-20T09:53:34.597Z,24.37
2018-03-20T09:56:02.120Z,20.63
2018-03-20T09:58:29.655Z,20.77
2018-03-20T10:00:57.160Z,20.10
2018-03-20T10:03:24.702Z,25.83
2018-03-20T10:05:52.278Z,23.00
2018-03-20T10:08:19.838Z,21.00
2018-03-20T10:10:47.386Z,24.27
2018-03-20T10:13:14.915Z,20.90
2018-03-20T10:15:42.498Z,23.57
2018-03-20T10:18:10.027Z,23.43
2018-03-20T10:20:37.626Z,22.83
2018-03-20T10:23:05.146Z,24.80
2018-03-20T10:25:32.737Z,24.27
2018-03-20T10:28:00.296Z,23.90
2018-03-20T10:30:27.827Z,23.13
2018-03-20T10:32:55.349Z,23.47
2018-03-20T10:35:22.979Z,25.93
2018-03-20T10:37:50.534Z,25.47
2018-03-20T10:40:18.105Z,24.97
2018-03-20T10:42:45.757Z,22.30
2018-03-20T10:45:13.273Z,25.53
2018-03-20T10:47:40.799Z,24.07
2018-03-20T10:50:08.340Z,27.37
2018-03-20T10:52:35.849Z,26.83
2018-03-20T10:55:03.458Z,21.97
2018-03-20T10:57:30.979Z,25.73
2018-03-20T10:59:58.507Z,25.53
2018-03-20T11:02:31.986Z,22.67
2018-03-20T11:04:59.501Z,23.53
2018-03-20T11:07:27.105Z,24.30
2018-03-20T11:09:54.617Z,23.70
2018-03-20T11:12:22.213Z,27.27
2018-03-20T11:14:49.740Z,23.33
2018-03-20T11:17:17.263Z,19.90
2018-03-20T11:19:44.790Z,21.93
2018-03-20T11:22:12.313Z,21.53
2018-03-20T11:24:39.869Z,21.87
2018-03-20T11:27:07.398Z,25.20
2018-03-20T11:29:34.930Z,26.20
2018-03-20T11:32:02.457Z,22.77
2018-03-20T11:34:29.974Z,22.00
2018-03-20T11:36:57.613Z,20.40
2018-03-20T11:39:25.709Z,23.27
2018-03-20T11:41:53.271Z,18.30
2018-03-20T11:44:20.798Z,21.30
2018-03-20T11:46:48.313Z,19.47
2018-03-20T11:49:15.914Z,23.63
2018-03-20T11:51:43.532Z,22.80
2018-03-20T11:54:11.142Z,21.37
2018-03-20T11:56:38.669Z,23.97
2018-03-20T11:59:06.192Z,25.30
2018-03-20T12:01:33.719Z,28.93
2018-03-20T12:04:01.280Z,23.97
2018-03-20T12:06:28.941Z,24.03
2018-03-20T12:09:08.383Z,22.53
2018-03-20T12:11:35.939Z,24.40
2018-03-20T12:14:03.448Z,22.67
2018-03-20T12:16:30.981Z,22.90
2018-03-20T12:18:58.520Z,26.17
2018-03-20T12:21:26.044Z,26.77
2018-03-20T12:23:53.637Z,23.10
2018-03-20T12:26:21.162Z,23.00
2018-03-20T12:28:48.682Z,24.93
2018-03-20T12:31:16.205Z,21.77
2018-03-20T12:33:43.742Z,21.20
2018-03-20T12:36:11.265Z,23.70
2018-03-20T12:38:38.779Z,24.33
2018-03-20T12:41:06.310Z,22.70
2018-03-20T12:43:34.015Z,25.93
2018-03-20T12:46:01.530Z,19.23
2018-03-20T12:48:29.072Z,24.60
2018-03-20T12:50:56.628Z,22.13
2018-03-20T12:53:24.155Z,21.43
2018-03-20T12:55:51.677Z,22.73
2018-03-20T12:58:19.198Z,26.30
2018-03-20T13:00:46.730Z,26.73
2018-03-20T13:03:14.244Z,24.77
2018-03-20T13:05:41.769Z,22.43
2018-03-20T13:08:09.416Z,20.00
2018-03-20T13:10:36.986Z,19.83
2018-03-20T13:13:04.526Z,20.30
2018-03-20T13:15:32.196Z,21.50
2018-03-20T13:18:00.780Z,20.90
2018-03-20T13:20:28.423Z,18.33
2018-03-20T13:22:55.995Z,21.23
2018-03-20T13:25:23.557Z,16.77
2018-03-20T13:27:51.109Z,21.97
2018-03-20T13:30:18.696Z,22.20
2018-03-20T13:32:46.236Z,22.63
2018-03-20T13:35:13.771Z,19.43
2018-03-20T13:37:41.281Z,17.43
2018-03-20T13:40:08.819Z,16.67
2018-03-20T13:42:36.367Z,20.07
2018-03-20T13:45:03.885Z,16.97
2018-03-20T13:47:31.470Z,18.40
2018-03-20T13:49:58.986Z,17.80
2018-03-20T13:52:26.617Z,21.20
2018-03-20T13:54:54.142Z,17.30
2018-03-20T13:57:21.670Z,19.80
2018-03-20T13:59:49.197Z,18.17
2018-03-20T14:02:16.721Z,18.07
2018-03-20T14:04:44.244Z,15.03
2018-03-20T14:07:11.757Z,15.47
2018-03-20T14:09:39.334Z,14.40
2018-03-20T14:12:06.857Z,13.07
2018-03-20T14:14:34.453Z,14.97
2018-03-20T14:17:01.989Z,13.90
2018-03-20T14:19:29.511Z,15.60
2018-03-20T14:21:57.132Z,15.33
2018-03-20T14:24:24.659Z,14.43
2018-03-20T14:26:52.202Z,13.03
2018-03-20T14:29:19.714Z,12.67
2018-03-20T14:31:47.227Z,12.13
2018-03-20T14:34:14.841Z,12.67
2018-03-20T14:36:42.352Z,12.60
2018-03-20T14:39:09.880Z,11.07
2018-03-20T14:41:37.408Z,12.30
2018-03-20T14:44:04.944Z,12.53
2018-03-20T14:46:32.462Z,12.50
2018-03-20T14:48:59.995Z,15.77
2018-03-20T14:51:27.518Z,10.93
2018-03-20T14:53:54.419Z,12.07
2018-03-20T14:56:21.952Z,14.00
2018-03-20T14:58:49.482Z,11.80
2018-03-20T15:01:16.998Z,10.13
2018-03-20T15:03:44.531Z,12.23
2018-03-20T15:06:12.062Z,9.90
2018-03-20T15:08:39.578Z,9.30
2018-03-20T15:11:07.090Z,9.77
2018-03-20T15:13:34.810Z,11.10
2018-03-20T15:16:02.367Z,9.73
2018-03-20T15:18:29.880Z,12.10
2018-03-20T15:20:57.403Z,8.97
2018-03-20T15:23:25.005Z,8.87
2018-03-20T15:25:52.534Z,7.90
2018-03-20T15:28:20.184Z,6.13
2018-03-20T15:30:47.773Z,8.17
2018-03-20T15:33:15.275Z,7.07
2018-03-20T15:35:42.812Z,4.80
2018-03-20T15:38:10.337Z,5.87
2018-03-20T15:40:37.853Z,8.90
2018-03-20T15:43:05.389Z,6.40
2018-03-20T15:45:32.916Z,4.33
2018-03-20T15:48:00.424Z,6.53
2018-03-20T15:50:27.927Z,3.47
2018-03-20T15:52:55.477Z,8.63
2018-03-20T15:55:23.086Z,2.33
2018-03-20T15:57:50.609Z,4.67
2018-03-20T16:00:18.138Z,2.70
2018-03-20T16:02:45.661Z,4.57
2018-03-20T16:05:13.184Z,1.97
2018-03-20T16:07:40.782Z,4.97
2018-03-20T16:10:08.343Z,6.50
2018-03-20T16:12:35.853Z,7.63
2018-03-20T16:15:03.371Z,7.63
2018-03-20T16:17:30.900Z,3.70
2018-03-20T16:19:58.407Z,4.43
2018-03-20T16:22:25.922Z,6.93
2018-03-20T16:24:53.429Z,5.47
2018-03-20T16:27:21.062Z,5.10
2018-03-20T16:29:48.586Z,7.37
2018-03-20T16:32:16.097Z,3.50
2018-03-20T16:34:43.668Z,9.50
2018-03-20T16:37:11.146Z,9.77
2018-03-20T16:39:38.690Z,4.07
2018-03-20T16:42:06.313Z,6.80
2018-03-20T16:44:33.837Z,4.57
2018-03-20T16:47:01.362Z,5.60
2018-03-20T16:49:28.872Z,4.13
2018-03-20T16:51:56.383Z,6.20
2018-03-20T16:54:23.889Z,4.43
2018-03-20T16:56:51.445Z,5.13
2018-03-20T16:59:19.094Z,5.47
2018-03-20T17:01:46.571Z,5.13
2018-03-20T17:04:14.091Z,7.20
2018-03-20T17:06:41.609Z,4.13
2018-03-20T17:09:09.329Z,6.30
2018-03-20T17:11:36.839Z,6.47
2018-03-20T17:14:04.357Z,5.67
2018-03-20T17:16:31.878Z,5.33
2018-03-20T17:18:59.402Z,5.93
2018-03-20T17:21:26.939Z,6.40
2018-03-20T17:23:54.460Z,6.03
2018-03-20T17:26:21.979Z,8.03
2018-03-20T17:28:49.513Z,5.97
2018-03-20T17:31:17.070Z,7.40
2018-03-20T17:33:44.664Z,4.90
2018-03-20T17:36:12.173Z,7.53
2018-03-20T17:38:39.709Z,3.67
2018-03-20T17:41:07.342Z,8.27
2018-03-20T17:43:34.960Z,5.70
2018-03-20T17:46:02.484Z,5.10
2018-03-20T17:48:29.989Z,3.07
2018-03-20T17:50:57.492Z,6.00
2018-03-20T17:53:26.684Z,3.93
2018-03-20T17:55:54.211Z,3.10
2018-03-20T17:58:21.766Z,5.23
2018-03-20T18:00:49.331Z,4.53
2018-03-20T18:03:16.915Z,8.33
2018-03-20T18:05:44.476Z,3.37
2018-03-20T18:08:12.036Z,5.40
2018-03-20T18:10:39.600Z,4.90
2018-03-20T18:13:07.110Z,2.67
2018-03-20T18:15:34.655Z,4.03
2018-03-20T18:18:02.165Z,4.63
2018-03-20T18:20:29.680Z,5.03
2018-03-20T18:22:57.260Z,7.53
2018-03-20T18:25:24.857Z,4.87
2018-03-20T18:27:52.372Z,7.17
2018-03-20T18:30:19.901Z,5.83
2018-03-20T18:32:47.550Z,4.63
2018-03-20T18:35:15.091Z,5.77
2018-03-20T18:37:42.635Z,4.70
2018-03-20T18:40:10.148Z,6.77
2018-03-20T18:42:37.771Z,6.00
2018-03-20T18:45:05.293Z,5.73
2018-03-20T18:47:32.819Z,5.57
2018-03-20T18:50:00.355Z,7.37
2018-03-20T18:52:27.869Z,5.40
2018-03-20T18:54:55.786Z,6.20
2018-03-20T18:57:23.299Z,6.23
2018-03-20T18:59:50.801Z,5.23
2018-03-20T19:02:18.526Z,5.33
2018-03-20T19:04:46.051Z,3.37
2018-03-20T19:07:13.580Z,7.80
2018-03-20T19:09:41.247Z,8.43
2018-03-20T19:12:08.910Z,7.87
2018-03-20T19:14:36.606Z,4.90
2018-03-20T19:17:04.099Z,3.73
2018-03-20T19:19:31.610Z,7.53
2018-03-20T19:21:59.134Z,7.33
2018-03-20T19:24:26.714Z,3.77
2018-03-20T19:26:54.232Z,8.50
2018-03-20T19:29:21.828Z,4.57
2018-03-20T19:31:49.372Z,4.30
2018-03-20T19:34:16.902Z,6.07
2018-03-20T19:36:44.425Z,5.90
2018-03-20T19:39:11.966Z,4.90
2018-03-20T19:41:39.526Z,4.00
2018-03-20T19:44:07.044Z,7.67
2018-03-20T19:46:34.577Z,5.13
2018-03-20T19:49:02.105Z,4.93
2018-03-20T19:51:29.630Z,4.57
2018-03-20T19:53:57.188Z,5.37
2018-03-20T19:56:24.732Z,6.70
2018-03-20T19:58:52.345Z,5.47
2018-03-20T20:01:19.904Z,5.43
2018-03-20T20:03:47.427Z,5.70
2018-03-20T20:06:15.047Z,4.67
2018-03-20T20:08:42.523Z,5.87
2018-03-20T20:11:10.138Z,5.30
2018-03-20T20:13:37.667Z,4.10
2018-03-20T20:16:05.169Z,4.37
2018-03-20T20:18:32.698Z,7.33
2018-03-20T20:21:00.219Z,5.13
2018-03-20T20:23:27.735Z,7.33
2018-03-20T20:25:55.273Z,5.60
2018-03-20T20:28:22.795Z,5.93
2018-03-20T20:30:50.313Z,5.10
2018-03-20T20:33:17.851Z,6.53
2018-03-20T20:35:45.386Z,5.07
2018-03-20T20:38:12.937Z,4.77
2018-03-20T20:40:40.568Z,3.90
2018-03-20T20:43:08.088Z,8.30
2018-03-20T20:45:35.619Z,3.57
2018-03-20T20:48:03.142Z,5.47
2018-03-20T20:50:30.667Z,5.47
2018-03-20T20:52:58.187Z,5.93
2018-03-20T20:55:25.707Z,7.90
2018-03-20T20:57:53.223Z,5.53
2018-03-20T21:00:20.737Z,7.80
2018-03-20T21:02:48.245Z,5.37
2018-03-20T21:05:15.849Z,5.07
2018-03-20T21:07:43.405Z,6.17
2018-03-20T21:10:10.926Z,9.70
2018-03-20T21:12:38.442Z,5.43
2018-03-20T21:15:05.957Z,8.07
2018-03-20T21:17:33.548Z,6.77
2018-03-20T21:20:01.115Z,5.47
2018-03-20T21:22:28.635Z,5.00
2018-03-20T21:24:56.153Z,6.47
2018-03-20T21:27:23.690Z,6.57
2018-03-20T21:29:51.250Z,4.77
2018-03-20T21:32:18.778Z,5.33
2018-03-20T21:34:46.301Z,14.37
2018-03-20T21:37:13.810Z,8.40
2018-03-20T21:39:41.335Z,7.47
2018-03-20T21:42:08.852Z,4.23
2018-03-20T21:44:36.403Z,6.03
2018-03-20T21:47:03.912Z,7.67
2018-03-20T21:49:31.420Z,4.43
2018-03-20T21:51:58.936Z,7.53
2018-03-20T21:54:26.446Z,8.23
2018-03-20T21:56:53.962Z,5.97
2018-03-20T21:59:21.552Z,6.77
2018-03-20T22:01:49.115Z,4.80
2018-03-20T22:04:16.631Z,7.00
2018-03-20T22:06:44.161Z,5.50
2018-03-20T22:09:11.791Z,7.33
2018-03-20T22:11:39.304Z,9.07
2018-03-20T22:14:06.814Z,6.13
2018-03-20T22:16:34.358Z,5.00
2018-03-20T22:19:01.904Z,5.80
2018-03-20T22:21:29.479Z,8.27
2018-03-20T22:23:56.993Z,7.27
2018-03-20T22:26:24.538Z,6.97
2018-03-20T22:28:52.072Z,5.73
2018-03-20T22:31:19.596Z,12.53
2018-03-20T22:33:47.125Z,9.60
2018-03-20T22:36:14.631Z,6.23
2018-03-20T22:38:42.212Z,8.40
2018-03-20T22:41:09.770Z,8.53
2018-03-20T22:43:37.291Z,6.73
2018-03-20T22:46:04.857Z,6.57
2018-03-20T22:48:32.377Z,7.60
2018-03-20T22:50:59.930Z,9.77
2018-03-20T22:53:27.450Z,6.00
2018-03-20T22:55:54.985Z,7.23
2018-03-20T22:58:22.515Z,6.53
2018-03-20T23:00:50.044Z,6.43
2018-03-20T23:03:17.604Z,15.50
2018-03-20T23:05:45.125Z,9.57
2018-03-20T23:08:12.709Z,6.33
2018-03-20T23:10:40.285Z,5.03
2018-03-20T23:13:07.829Z,8.47
2018-03-20T23:15:35.361Z,5.50
2018-03-20T23:18:02.923Z,7.07
2018-03-20T23:20:30.468Z,8.17
2018-03-20T23:22:58.020Z,9.93
2018-03-20T23:25:25.529Z,4.97
2018-03-20T23:27:53.071Z,7.83
2018-03-20T23:30:20.590Z,6.90
2018-03-20T23:32:48.104Z,8.77
2018-03-20T23:35:15.619Z,7.83
2018-03-20T23:37:43.127Z,7.17
2018-03-20T23:40:10.651Z,6.93
2018-03-20T23:42:38.184Z,6.13
2018-03-20T23:45:05.715Z,7.77
2018-03-20T23:47:33.245Z,7.07
2018-03-20T23:50:00.840Z,11.07
2018-03-20T23:52:28.360Z,8.43
2018-03-20T23:54:55.894Z,9.67
2018-03-20T23:57:23.496Z,7.50
2018-03-20T23:59:51.050Z,9.90
